sensor_id;sensor_type;location;lat;lon;timestamp;P1;durP1;ratioP1;P2;durP2;ratioP2
3101;SDS011;1561;42.666;23.392;2022-07-30T00:02:13;84.40;;;56.42;;
3101;SDS011;1561;42.666;23.392;2022-07-30T00:04:58;15.88;;;13.93;;
3101;SDS011;1561;42.666;23.392;2022-07-30T00:07:33;9.35;;;8.43;;
3101;SDS011;1561;42.666;23.392;2022-07-30T00:10:21;7.05;;;6.55;;
3101;SDS011;1561;42.666;23.392;2022-07-30T00:13:02;5.90;;;5.50;;
3101;SDS011;1561;42.666;23.392;2022-07-30T00:15:37;6.82;;;6.32;;
3101;SDS011;1561;42.666;23.392;2022-07-30T00:18:35;8.07;;;7.38;;
3101;SDS011;1561;42.666;23.392;2022-07-30T00:21:02;6.72;;;6.10;;
3101;SDS011;1561;42.666;23.392;2022-07-30T00:23:49;6.20;;;5.80;;
3101;SDS011;1561;42.666;23.392;2022-07-30T00:26:20;6.60;;;6.00;;
3101;SDS011;1561;42.666;23.392;2022-07-30T00:29:02;6.25;;;5.82;;
3101;SDS011;1561;42.666;23.392;2022-07-30T00:31:49;6.90;;;6.30;;
3101;SDS011;1561;42.666;23.392;2022-07-30T00:34:31;6.30;;;5.80;;
3101;SDS011;1561;42.666;23.392;2022-07-30T00:37:32;6.57;;;6.03;;
3101;SDS011;1561;42.666;23.392;2022-07-30T00:43:31;7.63;;;6.88;;
3101;SDS011;1561;42.666;23.392;2022-07-30T00:46:12;6.50;;;5.82;;
3101;SDS011;1561;42.666;23.392;2022-07-30T00:48:49;6.60;;;6.10;;
3101;SDS011;1561;42.666;23.392;2022-07-30T00:51:34;6.80;;;6.30;;
3101;SDS011;1561;42.666;23.392;2022-07-30T00:54:07;7.13;;;6.53;;
3101;SDS011;1561;42.666;23.392;2022-07-30T00:56:50;6.97;;;6.30;;
3101;SDS011;1561;42.666;23.392;2022-07-30T00:59:23;8.20;;;6.70;;
3101;SDS011;1561;42.666;23.392;2022-07-30T01:01:57;6.50;;;5.90;;
3101;SDS011;1561;42.666;23.392;2022-07-30T01:04:29;7.93;;;7.18;;
3101;SDS011;1561;42.666;23.392;2022-07-30T01:07:09;7.05;;;6.45;;
3101;SDS011;1561;42.666;23.392;2022-07-30T01:09:41;7.00;;;6.30;;
3101;SDS011;1561;42.666;23.392;2022-07-30T01:12:28;9.27;;;6.13;;
3101;SDS011;1561;42.666;23.392;2022-07-30T01:15:19;6.32;;;5.82;;
3101;SDS011;1561;42.666;23.392;2022-07-30T01:18:02;6.50;;;5.97;;
3101;SDS011;1561;42.666;23.392;2022-07-30T01:20:42;6.72;;;6.07;;
3101;SDS011;1561;42.666;23.392;2022-07-30T01:26:34;6.40;;;5.75;;
3101;SDS011;1561;42.666;23.392;2022-07-30T01:31:58;7.57;;;6.30;;
3101;SDS011;1561;42.666;23.392;2022-07-30T01:34:34;6.90;;;6.40;;
3101;SDS011;1561;42.666;23.392;2022-07-30T01:37:05;9.15;;;6.07;;
3101;SDS011;1561;42.666;23.392;2022-07-30T01:39:42;6.63;;;6.03;;
3101;SDS011;1561;42.666;23.392;2022-07-30T01:42:27;12.05;;;6.40;;
3101;SDS011;1561;42.666;23.392;2022-07-30T01:44:59;9.48;;;6.20;;
3101;SDS011;1561;42.666;23.392;2022-07-30T01:47:36;6.68;;;6.18;;
3101;SDS011;1561;42.666;23.392;2022-07-30T01:50:15;7.72;;;6.60;;
3101;SDS011;1561;42.666;23.392;2022-07-30T01:52:50;7.45;;;6.85;;
3101;SDS011;1561;42.666;23.392;2022-07-30T01:55:26;7.03;;;6.32;;
3101;SDS011;1561;42.666;23.392;2022-07-30T02:01:01;6.78;;;6.03;;
3101;SDS011;1561;42.666;23.392;2022-07-30T02:03:55;7.38;;;6.68;;
3101;SDS011;1561;42.666;23.392;2022-07-30T02:06:40;7.00;;;6.40;;
3101;SDS011;1561;42.666;23.392;2022-07-30T02:09:14;7.60;;;6.38;;
3101;SDS011;1561;42.666;23.392;2022-07-30T02:11:51;6.60;;;6.10;;
3101;SDS011;1561;42.666;23.392;2022-07-30T02:17:50;6.88;;;6.28;;
3101;SDS011;1561;42.666;23.392;2022-07-30T02:20:34;7.13;;;6.45;;
3101;SDS011;1561;42.666;23.392;2022-07-30T02:23:24;8.43;;;7.10;;
3101;SDS011;1561;42.666;23.392;2022-07-30T02:26:00;7.05;;;6.43;;
3101;SDS011;1561;42.666;23.392;2022-07-30T02:28:37;6.53;;;6.03;;
3101;SDS011;1561;42.666;23.392;2022-07-30T02:31:16;7.25;;;6.55;;
3101;SDS011;1561;42.666;23.392;2022-07-30T02:33:58;6.95;;;6.45;;
3101;SDS011;1561;42.666;23.392;2022-07-30T02:36:32;6.80;;;6.20;;
3101;SDS011;1561;42.666;23.392;2022-07-30T02:39:18;7.40;;;6.70;;
3101;SDS011;1561;42.666;23.392;2022-07-30T02:41:52;7.45;;;6.65;;
3101;SDS011;1561;42.666;23.392;2022-07-30T02:44:27;10.18;;;6.53;;
3101;SDS011;1561;42.666;23.392;2022-07-30T02:49:55;7.82;;;7.22;;
3101;SDS011;1561;42.666;23.392;2022-07-30T02:56:02;9.23;;;7.03;;
3101;SDS011;1561;42.666;23.392;2022-07-30T02:58:49;7.45;;;6.75;;
3101;SDS011;1561;42.666;23.392;2022-07-30T03:01:24;9.93;;;6.97;;
3101;SDS011;1561;42.666;23.392;2022-07-30T03:04:24;7.13;;;6.40;;
3101;SDS011;1561;42.666;23.392;2022-07-30T03:06:56;8.00;;;7.32;;
3101;SDS011;1561;42.666;23.392;2022-07-30T03:09:36;8.07;;;7.45;;
3101;SDS011;1561;42.666;23.392;2022-07-30T03:12:26;8.15;;;7.43;;
3101;SDS011;1561;42.666;23.392;2022-07-30T03:15:23;6.82;;;6.22;;
3101;SDS011;1561;42.666;23.392;2022-07-30T03:17:53;7.05;;;6.32;;
3101;SDS011;1561;42.666;23.392;2022-07-30T03:20:51;7.90;;;7.30;;
3101;SDS011;1561;42.666;23.392;2022-07-30T03:23:22;7.55;;;6.85;;
3101;SDS011;1561;42.666;23.392;2022-07-30T03:25:56;8.30;;;6.95;;
3101;SDS011;1561;42.666;23.392;2022-07-30T03:28:46;9.07;;;6.85;;
3101;SDS011;1561;42.666;23.392;2022-07-30T03:31:22;8.70;;;7.20;;
3101;SDS011;1561;42.666;23.392;2022-07-30T03:34:07;8.15;;;7.35;;
3101;SDS011;1561;42.666;23.392;2022-07-30T03:39:40;7.53;;;6.80;;
3101;SDS011;1561;42.666;23.392;2022-07-30T03:42:14;8.48;;;7.82;;
3101;SDS011;1561;42.666;23.392;2022-07-30T03:44:50;8.23;;;7.07;;
3101;SDS011;1561;42.666;23.392;2022-07-30T03:47:48;7.85;;;7.13;;
3101;SDS011;1561;42.666;23.392;2022-07-30T03:50:17;11.38;;;7.68;;
3101;SDS011;1561;42.666;23.392;2022-07-30T03:53:16;8.18;;;7.47;;
3101;SDS011;1561;42.666;23.392;2022-07-30T03:56:11;10.75;;;7.72;;
3101;SDS011;1561;42.666;23.392;2022-07-30T03:59:08;7.57;;;6.88;;
3101;SDS011;1561;42.666;23.392;2022-07-30T04:01:47;13.57;;;8.55;;
3101;SDS011;1561;42.666;23.392;2022-07-30T04:04:21;8.50;;;7.38;;
3101;SDS011;1561;42.666;23.392;2022-07-30T04:06:59;10.60;;;8.57;;
3101;SDS011;1561;42.666;23.392;2022-07-30T04:12:22;10.18;;;7.32;;
3101;SDS011;1561;42.666;23.392;2022-07-30T04:15:09;10.10;;;8.05;;
3101;SDS011;1561;42.666;23.392;2022-07-30T04:17:42;9.93;;;8.13;;
3101;SDS011;1561;42.666;23.392;2022-07-30T04:20:23;15.00;;;9.70;;
3101;SDS011;1561;42.666;23.392;2022-07-30T04:23:02;8.70;;;7.85;;
3101;SDS011;1561;42.666;23.392;2022-07-30T04:25:44;9.80;;;8.73;;
3101;SDS011;1561;42.666;23.392;2022-07-30T04:28:20;11.27;;;9.00;;
3101;SDS011;1561;42.666;23.392;2022-07-30T04:30:48;8.65;;;7.85;;
3101;SDS011;1561;42.666;23.392;2022-07-30T04:33:28;11.45;;;10.35;;
3101;SDS011;1561;42.666;23.392;2022-07-30T04:35:58;12.32;;;11.13;;
3101;SDS011;1561;42.666;23.392;2022-07-30T04:38:37;11.55;;;9.90;;
3101;SDS011;1561;42.666;23.392;2022-07-30T04:41:16;11.18;;;9.85;;
3101;SDS011;1561;42.666;23.392;2022-07-30T04:43:54;10.45;;;9.48;;
3101;SDS011;1561;42.666;23.392;2022-07-30T04:46:25;12.15;;;8.75;;
3101;SDS011;1561;42.666;23.392;2022-07-30T04:49:10;9.48;;;8.55;;
3101;SDS011;1561;42.666;23.392;2022-07-30T04:51:48;10.57;;;9.13;;
3101;SDS011;1561;42.666;23.392;2022-07-30T04:54:24;10.63;;;9.30;;
3101;SDS011;1561;42.666;23.392;2022-07-30T04:57:05;10.60;;;9.68;;
3101;SDS011;1561;42.666;23.392;2022-07-30T04:59:36;13.82;;;9.50;;
3101;SDS011;1561;42.666;23.392;2022-07-30T05:02:17;10.52;;;9.23;;
3101;SDS011;1561;42.666;23.392;2022-07-30T05:04:49;11.93;;;9.15;;
3101;SDS011;1561;42.666;23.392;2022-07-30T05:07:36;9.82;;;9.02;;
3101;SDS011;1561;42.666;23.392;2022-07-30T05:10:21;9.55;;;8.55;;
3101;SDS011;1561;42.666;23.392;2022-07-30T05:12:56;9.65;;;8.73;;
3101;SDS011;1561;42.666;23.392;2022-07-30T05:15:26;10.38;;;8.75;;
3101;SDS011;1561;42.666;23.392;2022-07-30T05:18:03;10.90;;;9.82;;
3101;SDS011;1561;42.666;23.392;2022-07-30T05:20:42;11.35;;;8.63;;
3101;SDS011;1561;42.666;23.392;2022-07-30T05:23:41;10.63;;;9.65;;
3101;SDS011;1561;42.666;23.392;2022-07-30T05:26:22;10.02;;;9.13;;
3101;SDS011;1561;42.666;23.392;2022-07-30T05:29:12;11.88;;;10.68;;
3101;SDS011;1561;42.666;23.392;2022-07-30T05:31:47;11.88;;;10.68;;
3101;SDS011;1561;42.666;23.392;2022-07-30T05:34:18;14.43;;;11.13;;
3101;SDS011;1561;42.666;23.392;2022-07-30T05:36:53;12.60;;;9.70;;
3101;SDS011;1561;42.666;23.392;2022-07-30T05:39:26;10.82;;;9.70;;
3101;SDS011;1561;42.666;23.392;2022-07-30T05:41:58;12.02;;;9.90;;
3101;SDS011;1561;42.666;23.392;2022-07-30T05:44:43;11.45;;;10.35;;
3101;SDS011;1561;42.666;23.392;2022-07-30T05:47:13;11.10;;;9.65;;
3101;SDS011;1561;42.666;23.392;2022-07-30T05:49:45;14.00;;;9.65;;
3101;SDS011;1561;42.666;23.392;2022-07-30T05:52:17;10.38;;;9.48;;
3101;SDS011;1561;42.666;23.392;2022-07-30T05:54:58;10.25;;;9.43;;
3101;SDS011;1561;42.666;23.392;2022-07-30T05:57:25;12.60;;;10.55;;
3101;SDS011;1561;42.666;23.392;2022-07-30T05:59:55;12.85;;;10.55;;
3101;SDS011;1561;42.666;23.392;2022-07-30T06:02:22;9.93;;;8.93;;
3101;SDS011;1561;42.666;23.392;2022-07-30T06:04:49;10.63;;;9.38;;
3101;SDS011;1561;42.666;23.392;2022-07-30T06:07:17;18.70;;;14.30;;
3101;SDS011;1561;42.666;23.392;2022-07-30T06:09:44;13.52;;;10.30;;
3101;SDS011;1561;42.666;23.392;2022-07-30T06:12:26;8.90;;;8.05;;
3101;SDS011;1561;42.666;23.392;2022-07-30T06:15:05;7.55;;;6.93;;
3101;SDS011;1561;42.666;23.392;2022-07-30T06:17:48;7.85;;;7.15;;
3101;SDS011;1561;42.666;23.392;2022-07-30T06:20:18;8.07;;;7.38;;
3101;SDS011;1561;42.666;23.392;2022-07-30T06:23:02;9.05;;;8.15;;
3101;SDS011;1561;42.666;23.392;2022-07-30T06:25:32;7.85;;;7.15;;
3101;SDS011;1561;42.666;23.392;2022-07-30T06:28:00;9.23;;;8.25;;
3101;SDS011;1561;42.666;23.392;2022-07-30T06:30:35;10.02;;;7.82;;
3101;SDS011;1561;42.666;23.392;2022-07-30T06:33:02;8.30;;;7.70;;
3101;SDS011;1561;42.666;23.392;2022-07-30T06:35:32;7.95;;;7.35;;
3101;SDS011;1561;42.666;23.392;2022-07-30T06:38:00;8.50;;;7.75;;
3101;SDS011;1561;42.666;23.392;2022-07-30T06:40:34;16.35;;;14.68;;
3101;SDS011;1561;42.666;23.392;2022-07-30T06:43:03;7.72;;;7.22;;
3101;SDS011;1561;42.666;23.392;2022-07-30T06:45:35;8.35;;;7.55;;
3101;SDS011;1561;42.666;23.392;2022-07-30T06:48:06;8.02;;;7.32;;
3101;SDS011;1561;42.666;23.392;2022-07-30T06:50:34;8.27;;;7.63;;
3101;SDS011;1561;42.666;23.392;2022-07-30T06:53:06;7.97;;;7.38;;
3101;SDS011;1561;42.666;23.392;2022-07-30T06:55:34;9.45;;;8.00;;
3101;SDS011;1561;42.666;23.392;2022-07-30T06:58:03;9.75;;;8.80;;
3101;SDS011;1561;42.666;23.392;2022-07-30T07:00:31;10.60;;;8.00;;
3101;SDS011;1561;42.666;23.392;2022-07-30T07:03:05;8.02;;;7.32;;
3101;SDS011;1561;42.666;23.392;2022-07-30T07:05:33;7.05;;;6.55;;
3101;SDS011;1561;42.666;23.392;2022-07-30T07:08:02;7.65;;;6.95;;
3101;SDS011;1561;42.666;23.392;2022-07-30T07:10:34;12.25;;;11.10;;
3101;SDS011;1561;42.666;23.392;2022-07-30T07:13:15;7.65;;;6.95;;
3101;SDS011;1561;42.666;23.392;2022-07-30T07:15:43;8.02;;;7.43;;
3101;SDS011;1561;42.666;23.392;2022-07-30T07:18:14;10.23;;;7.82;;
3101;SDS011;1561;42.666;23.392;2022-07-30T07:20:46;7.45;;;6.63;;
3101;SDS011;1561;42.666;23.392;2022-07-30T07:23:18;6.97;;;6.43;;
3101;SDS011;1561;42.666;23.392;2022-07-30T07:26:05;7.00;;;6.40;;
3101;SDS011;1561;42.666;23.392;2022-07-30T07:28:58;7.43;;;6.72;;
3101;SDS011;1561;42.666;23.392;2022-07-30T07:31:28;6.97;;;6.30;;
3101;SDS011;1561;42.666;23.392;2022-07-30T07:34:03;7.32;;;6.75;;
3101;SDS011;1561;42.666;23.392;2022-07-30T07:36:39;7.15;;;6.63;;
3101;SDS011;1561;42.666;23.392;2022-07-30T07:39:10;7.07;;;6.47;;
3101;SDS011;1561;42.666;23.392;2022-07-30T07:41:50;6.60;;;6.10;;
3101;SDS011;1561;42.666;23.392;2022-07-30T07:44:18;6.13;;;5.72;;
3101;SDS011;1561;42.666;23.392;2022-07-30T07:46:49;6.95;;;6.45;;
3101;SDS011;1561;42.666;23.392;2022-07-30T07:49:26;6.88;;;6.28;;
3101;SDS011;1561;42.666;23.392;2022-07-30T07:51:58;6.80;;;6.40;;
3101;SDS011;1561;42.666;23.392;2022-07-30T07:54:31;6.85;;;6.35;;
3101;SDS011;1561;42.666;23.392;2022-07-30T07:57:02;7.60;;;7.00;;
3101;SDS011;1561;42.666;23.392;2022-07-30T07:59:32;6.68;;;6.28;;
3101;SDS011;1561;42.666;23.392;2022-07-30T08:02:05;6.40;;;6.00;;
3101;SDS011;1561;42.666;23.392;2022-07-30T08:04:57;6.43;;;6.03;;
3101;SDS011;1561;42.666;23.392;2022-07-30T08:07:24;6.40;;;5.90;;
3101;SDS011;1561;42.666;23.392;2022-07-30T08:10:02;6.90;;;6.30;;
3101;SDS011;1561;42.666;23.392;2022-07-30T08:12:34;6.65;;;6.03;;
3101;SDS011;1561;42.666;23.392;2022-07-30T08:15:08;6.60;;;6.13;;
3101;SDS011;1561;42.666;23.392;2022-07-30T08:17:45;6.78;;;6.20;;
3101;SDS011;1561;42.666;23.392;2022-07-30T08:20:20;6.80;;;6.30;;
3101;SDS011;1561;42.666;23.392;2022-07-30T08:22:53;7.05;;;6.53;;
3101;SDS011;1561;42.666;23.392;2022-07-30T08:25:26;9.38;;;6.65;;
3101;SDS011;1561;42.666;23.392;2022-07-30T08:27:53;7.53;;;6.80;;
3101;SDS011;1561;42.666;23.392;2022-07-30T08:30:22;7.25;;;6.70;;
3101;SDS011;1561;42.666;23.392;2022-07-30T08:32:51;6.75;;;6.35;;
3101;SDS011;1561;42.666;23.392;2022-07-30T08:35:27;6.10;;;5.70;;
3101;SDS011;1561;42.666;23.392;2022-07-30T08:37:54;6.70;;;6.22;;
3101;SDS011;1561;42.666;23.392;2022-07-30T08:40:24;6.80;;;5.88;;
3101;SDS011;1561;42.666;23.392;2022-07-30T08:42:54;6.55;;;6.00;;
3101;SDS011;1561;42.666;23.392;2022-07-30T08:45:25;6.55;;;6.00;;
3101;SDS011;1561;42.666;23.392;2022-07-30T08:47:58;6.07;;;5.78;;
3101;SDS011;1561;42.666;23.392;2022-07-30T08:50:35;6.45;;;6.05;;
3101;SDS011;1561;42.666;23.392;2022-07-30T08:53:04;7.05;;;6.65;;
3101;SDS011;1561;42.666;23.392;2022-07-30T08:55:33;6.03;;;5.60;;
3101;SDS011;1561;42.666;23.392;2022-07-30T08:58:03;6.18;;;5.78;;
3101;SDS011;1561;42.666;23.392;2022-07-30T09:00:32;6.13;;;5.63;;
3101;SDS011;1561;42.666;23.392;2022-07-30T09:03:00;6.03;;;5.63;;
3101;SDS011;1561;42.666;23.392;2022-07-30T09:05:36;8.27;;;7.05;;
3101;SDS011;1561;42.666;23.392;2022-07-30T09:08:22;8.25;;;6.45;;
3101;SDS011;1561;42.666;23.392;2022-07-30T09:10:51;6.40;;;6.00;;
3101;SDS011;1561;42.666;23.392;2022-07-30T09:13:25;6.30;;;5.90;;
3101;SDS011;1561;42.666;23.392;2022-07-30T09:16:27;8.18;;;7.47;;
3101;SDS011;1561;42.666;23.392;2022-07-30T09:19:19;7.05;;;6.45;;
3101;SDS011;1561;42.666;23.392;2022-07-30T09:22:00;9.63;;;8.75;;
3101;SDS011;1561;42.666;23.392;2022-07-30T09:24:40;7.95;;;6.30;;
3101;SDS011;1561;42.666;23.392;2022-07-30T09:27:19;6.43;;;6.03;;
3101;SDS011;1561;42.666;23.392;2022-07-30T09:29:58;6.75;;;5.78;;
3101;SDS011;1561;42.666;23.392;2022-07-30T09:32:45;6.85;;;6.35;;
3101;SDS011;1561;42.666;23.392;2022-07-30T09:35:27;6.60;;;5.78;;
3101;SDS011;1561;42.666;23.392;2022-07-30T09:38:02;6.68;;;6.18;;
3101;SDS011;1561;42.666;23.392;2022-07-30T09:40:32;6.30;;;5.80;;
3101;SDS011;1561;42.666;23.392;2022-07-30T09:43:03;7.30;;;6.60;;
3101;SDS011;1561;42.666;23.392;2022-07-30T09:45:34;6.07;;;5.70;;
3101;SDS011;1561;42.666;23.392;2022-07-30T09:48:26;6.22;;;5.65;;
3101;SDS011;1561;42.666;23.392;2022-07-30T09:50:54;7.97;;;5.93;;
3101;SDS011;1561;42.666;23.392;2022-07-30T09:53:25;6.60;;;6.10;;
3101;SDS011;1561;42.666;23.392;2022-07-30T09:56:02;7.32;;;6.82;;
3101;SDS011;1561;42.666;23.392;2022-07-30T09:58:56;6.68;;;6.13;;
3101;SDS011;1561;42.666;23.392;2022-07-30T10:01:23;16.15;;;6.25;;
3101;SDS011;1561;42.666;23.392;2022-07-30T10:03:56;7.53;;;6.82;;
3101;SDS011;1561;42.666;23.392;2022-07-30T10:06:31;6.38;;;5.97;;
3101;SDS011;1561;42.666;23.392;2022-07-30T10:09:02;6.78;;;6.38;;
3101;SDS011;1561;42.666;23.392;2022-07-30T10:11:30;7.55;;;6.95;;
3101;SDS011;1561;42.666;23.392;2022-07-30T10:14:00;6.40;;;6.00;;
3101;SDS011;1561;42.666;23.392;2022-07-30T10:16:33;6.30;;;5.90;;
3101;SDS011;1561;42.666;23.392;2022-07-30T10:19:04;7.25;;;6.55;;
3101;SDS011;1561;42.666;23.392;2022-07-30T10:21:35;7.35;;;6.65;;
3101;SDS011;1561;42.666;23.392;2022-07-30T10:24:15;7.57;;;6.97;;
3101;SDS011;1561;42.666;23.392;2022-07-30T10:26:47;7.75;;;7.25;;
3101;SDS011;1561;42.666;23.392;2022-07-30T10:29:26;8.35;;;7.65;;
3101;SDS011;1561;42.666;23.392;2022-07-30T10:31:59;8.02;;;7.53;;
3101;SDS011;1561;42.666;23.392;2022-07-30T10:34:32;7.65;;;6.97;;
3101;SDS011;1561;42.666;23.392;2022-07-30T10:37:12;7.18;;;6.50;;
3101;SDS011;1561;42.666;23.392;2022-07-30T10:42:56;7.43;;;6.72;;
3101;SDS011;1561;42.666;23.392;2022-07-30T10:45:46;8.73;;;6.78;;
3101;SDS011;1561;42.666;23.392;2022-07-30T10:48:28;10.15;;;9.23;;
3101;SDS011;1561;42.666;23.392;2022-07-30T10:51:00;11.32;;;10.45;;
3101;SDS011;1561;42.666;23.392;2022-07-30T10:53:44;7.95;;;7.45;;
3101;SDS011;1561;42.666;23.392;2022-07-30T10:56:25;9.30;;;8.50;;
3101;SDS011;1561;42.666;23.392;2022-07-30T10:58:58;10.65;;;9.60;;
3101;SDS011;1561;42.666;23.392;2022-07-30T11:04:36;11.02;;;10.20;;
3101;SDS011;1561;42.666;23.392;2022-07-30T11:07:28;10.85;;;9.82;;
3101;SDS011;1561;42.666;23.392;2022-07-30T11:09:57;9.48;;;8.60;;
3101;SDS011;1561;42.666;23.392;2022-07-30T11:15:50;10.05;;;9.35;;
3101;SDS011;1561;42.666;23.392;2022-07-30T11:18:19;11.27;;;10.45;;
3101;SDS011;1561;42.666;23.392;2022-07-30T11:21:12;9.77;;;9.07;;
3101;SDS011;1561;42.666;23.392;2022-07-30T11:24:06;9.63;;;8.70;;
3101;SDS011;1561;42.666;23.392;2022-07-30T11:30:34;8.82;;;8.23;;
3101;SDS011;1561;42.666;23.392;2022-07-30T11:36:06;10.50;;;9.60;;
3101;SDS011;1561;42.666;23.392;2022-07-30T11:38:57;10.80;;;9.90;;
3101;SDS011;1561;42.666;23.392;2022-07-30T11:41:28;10.00;;;9.30;;
3101;SDS011;1561;42.666;23.392;2022-07-30T11:44:26;10.40;;;9.52;;
3101;SDS011;1561;42.666;23.392;2022-07-30T11:47:04;10.23;;;9.48;;
3101;SDS011;1561;42.666;23.392;2022-07-30T11:49:47;10.48;;;9.60;;
3101;SDS011;1561;42.666;23.392;2022-07-30T11:52:24;11.15;;;10.35;;
3101;SDS011;1561;42.666;23.392;2022-07-30T11:54:53;10.75;;;9.95;;
3101;SDS011;1561;42.666;23.392;2022-07-30T12:00:15;10.82;;;9.80;;
3101;SDS011;1561;42.666;23.392;2022-07-30T12:05:38;9.93;;;9.18;;
3101;SDS011;1561;42.666;23.392;2022-07-30T12:08:10;10.10;;;9.40;;
3101;SDS011;1561;42.666;23.392;2022-07-30T12:10:42;10.45;;;9.65;;
3101;SDS011;1561;42.666;23.392;2022-07-30T12:13:20;9.90;;;9.20;;
3101;SDS011;1561;42.666;23.392;2022-07-30T12:16:00;9.65;;;8.95;;
3101;SDS011;1561;42.666;23.392;2022-07-30T12:19:02;10.18;;;9.48;;
3101;SDS011;1561;42.666;23.392;2022-07-30T12:21:31;10.20;;;9.40;;
3101;SDS011;1561;42.666;23.392;2022-07-30T12:24:06;10.07;;;9.13;;
3101;SDS011;1561;42.666;23.392;2022-07-30T12:26:39;9.52;;;8.63;;
3101;SDS011;1561;42.666;23.392;2022-07-30T12:29:09;10.70;;;9.85;;
3101;SDS011;1561;42.666;23.392;2022-07-30T12:31:42;20.05;;;18.00;;
3101;SDS011;1561;42.666;23.392;2022-07-30T12:34:23;10.30;;;9.48;;
3101;SDS011;1561;42.666;23.392;2022-07-30T12:36:56;10.70;;;9.10;;
3101;SDS011;1561;42.666;23.392;2022-07-30T12:39:34;10.25;;;9.55;;
3101;SDS011;1561;42.666;23.392;2022-07-30T12:42:30;12.65;;;10.63;;
3101;SDS011;1561;42.666;23.392;2022-07-30T12:45:00;10.55;;;9.60;;
3101;SDS011;1561;42.666;23.392;2022-07-30T12:47:33;9.18;;;8.57;;
3101;SDS011;1561;42.666;23.392;2022-07-30T12:52:51;9.90;;;9.18;;
3101;SDS011;1561;42.666;23.392;2022-07-30T12:55:31;9.55;;;8.85;;
3101;SDS011;1561;42.666;23.392;2022-07-30T12:58:02;10.27;;;9.40;;
3101;SDS011;1561;42.666;23.392;2022-07-30T13:00:44;10.00;;;9.35;;
3101;SDS011;1561;42.666;23.392;2022-07-30T13:03:26;10.55;;;9.65;;
3101;SDS011;1561;42.666;23.392;2022-07-30T13:06:14;9.15;;;8.52;;
3101;SDS011;1561;42.666;23.392;2022-07-30T13:08:50;9.50;;;8.80;;
3101;SDS011;1561;42.666;23.392;2022-07-30T13:11:21;9.07;;;8.48;;
3101;SDS011;1561;42.666;23.392;2022-07-30T13:13:52;10.60;;;9.55;;
3101;SDS011;1561;42.666;23.392;2022-07-30T13:16:21;9.23;;;8.52;;
3101;SDS011;1561;42.666;23.392;2022-07-30T13:18:53;9.23;;;8.52;;
3101;SDS011;1561;42.666;23.392;2022-07-30T13:21:31;8.82;;;8.13;;
3101;SDS011;1561;42.666;23.392;2022-07-30T13:24:07;9.60;;;8.98;;
3101;SDS011;1561;42.666;23.392;2022-07-30T13:26:48;10.35;;;9.45;;
3101;SDS011;1561;42.666;23.392;2022-07-30T13:29:39;8.68;;;8.07;;
3101;SDS011;1561;42.666;23.392;2022-07-30T13:32:19;9.27;;;8.68;;
3101;SDS011;1561;42.666;23.392;2022-07-30T13:34:50;9.02;;;8.43;;
3101;SDS011;1561;42.666;23.392;2022-07-30T13:37:34;9.63;;;8.93;;
3101;SDS011;1561;42.666;23.392;2022-07-30T13:40:11;9.07;;;8.40;;
3101;SDS011;1561;42.666;23.392;2022-07-30T13:43:00;9.00;;;8.18;;
3101;SDS011;1561;42.666;23.392;2022-07-30T13:45:45;9.20;;;8.52;;
3101;SDS011;1561;42.666;23.392;2022-07-30T13:48:16;9.20;;;8.40;;
3101;SDS011;1561;42.666;23.392;2022-07-30T13:50:48;9.10;;;8.50;;
3101;SDS011;1561;42.666;23.392;2022-07-30T13:56:15;9.00;;;8.20;;
3101;SDS011;1561;42.666;23.392;2022-07-30T13:58:47;8.60;;;8.10;;
3101;SDS011;1561;42.666;23.392;2022-07-30T14:01:19;9.68;;;8.98;;
3101;SDS011;1561;42.666;23.392;2022-07-30T14:04:01;8.63;;;8.02;;
3101;SDS011;1561;42.666;23.392;2022-07-30T14:06:37;12.88;;;11.57;;
3101;SDS011;1561;42.666;23.392;2022-07-30T14:09:11;13.80;;;12.52;;
3101;SDS011;1561;42.666;23.392;2022-07-30T14:11:42;9.65;;;8.95;;
3101;SDS011;1561;42.666;23.392;2022-07-30T14:14:18;10.35;;;9.65;;
3101;SDS011;1561;42.666;23.392;2022-07-30T14:16:49;10.20;;;9.50;;
3101;SDS011;1561;42.666;23.392;2022-07-30T14:19:18;9.65;;;8.75;;
3101;SDS011;1561;42.666;23.392;2022-07-30T14:22:01;9.90;;;8.82;;
3101;SDS011;1561;42.666;23.392;2022-07-30T14:24:48;9.43;;;8.77;;
3101;SDS011;1561;42.666;23.392;2022-07-30T14:27:19;9.55;;;8.85;;
3101;SDS011;1561;42.666;23.392;2022-07-30T14:29:55;9.68;;;9.07;;
3101;SDS011;1561;42.666;23.392;2022-07-30T14:32:23;9.68;;;8.98;;
3101;SDS011;1561;42.666;23.392;2022-07-30T14:35:08;11.95;;;9.85;;
3101;SDS011;1561;42.666;23.392;2022-07-30T14:37:38;9.48;;;8.82;;
3101;SDS011;1561;42.666;23.392;2022-07-30T14:40:40;13.88;;;12.73;;
3101;SDS011;1561;42.666;23.392;2022-07-30T14:43:25;9.15;;;8.45;;
3101;SDS011;1561;42.666;23.392;2022-07-30T14:45:57;9.73;;;9.02;;
3101;SDS011;1561;42.666;23.392;2022-07-30T14:51:54;9.52;;;8.73;;
3101;SDS011;1561;42.666;23.392;2022-07-30T14:54:45;10.35;;;9.65;;
3101;SDS011;1561;42.666;23.392;2022-07-30T15:00:08;13.20;;;11.32;;
3101;SDS011;1561;42.666;23.392;2022-07-30T15:02:43;10.95;;;9.95;;
3101;SDS011;1561;42.666;23.392;2022-07-30T15:05:32;10.52;;;9.43;;
3101;SDS011;1561;42.666;23.392;2022-07-30T15:08:08;10.32;;;9.32;;
3101;SDS011;1561;42.666;23.392;2022-07-30T15:10:58;10.32;;;9.27;;
3101;SDS011;1561;42.666;23.392;2022-07-30T15:16:41;10.75;;;9.65;;
3101;SDS011;1561;42.666;23.392;2022-07-30T15:19:14;11.95;;;10.45;;
3101;SDS011;1561;42.666;23.392;2022-07-30T15:21:59;13.57;;;12.52;;
3101;SDS011;1561;42.666;23.392;2022-07-30T15:24:34;13.13;;;11.90;;
3101;SDS011;1561;42.666;23.392;2022-07-30T15:27:06;10.65;;;9.60;;
3101;SDS011;1561;42.666;23.392;2022-07-30T15:35:46;10.40;;;9.60;;
3101;SDS011;1561;42.666;23.392;2022-07-30T15:38:26;7.88;;;7.38;;
3101;SDS011;1561;42.666;23.392;2022-07-30T15:41:04;6.85;;;6.35;;
3101;SDS011;1561;42.666;23.392;2022-07-30T15:43:49;6.68;;;6.18;;
3101;SDS011;1561;42.666;23.392;2022-07-30T15:46:34;7.30;;;6.53;;
3101;SDS011;1561;42.666;23.392;2022-07-30T15:49:20;7.15;;;6.45;;
3101;SDS011;1561;42.666;23.392;2022-07-30T15:51:52;7.35;;;6.75;;
3101;SDS011;1561;42.666;23.392;2022-07-30T15:54:29;6.65;;;6.15;;
3101;SDS011;1561;42.666;23.392;2022-07-30T15:57:14;7.65;;;7.15;;
3101;SDS011;1561;42.666;23.392;2022-07-30T15:59:51;7.68;;;7.07;;
3101;SDS011;1561;42.666;23.392;2022-07-30T16:02:25;8.60;;;8.02;;
3101;SDS011;1561;42.666;23.392;2022-07-30T16:05:18;8.45;;;7.85;;
3101;SDS011;1561;42.666;23.392;2022-07-30T16:07:55;8.45;;;7.90;;
3101;SDS011;1561;42.666;23.392;2022-07-30T16:10:40;9.30;;;8.70;;
3101;SDS011;1561;42.666;23.392;2022-07-30T16:13:17;9.25;;;8.63;;
3101;SDS011;1561;42.666;23.392;2022-07-30T16:16:01;10.02;;;9.13;;
3101;SDS011;1561;42.666;23.392;2022-07-30T16:18:37;12.60;;;8.93;;
3101;SDS011;1561;42.666;23.392;2022-07-30T16:24:20;8.07;;;7.50;;
3101;SDS011;1561;42.666;23.392;2022-07-30T16:26:59;8.90;;;8.10;;
3101;SDS011;1561;42.666;23.392;2022-07-30T16:29:34;7.78;;;7.18;;
3101;SDS011;1561;42.666;23.392;2022-07-30T16:32:10;9.07;;;8.32;;
3101;SDS011;1561;42.666;23.392;2022-07-30T16:34:45;8.68;;;8.00;;
3101;SDS011;1561;42.666;23.392;2022-07-30T16:37:43;9.85;;;8.93;;
3101;SDS011;1561;42.666;23.392;2022-07-30T16:40:28;8.85;;;8.27;;
3101;SDS011;1561;42.666;23.392;2022-07-30T16:43:21;9.10;;;8.40;;
3101;SDS011;1561;42.666;23.392;2022-07-30T16:45:57;8.77;;;7.97;;
3101;SDS011;1561;42.666;23.392;2022-07-30T16:48:45;8.73;;;7.93;;
3101;SDS011;1561;42.666;23.392;2022-07-30T16:51:23;9.15;;;8.40;;
3101;SDS011;1561;42.666;23.392;2022-07-30T16:54:08;9.20;;;8.50;;
3101;SDS011;1561;42.666;23.392;2022-07-30T16:56:45;12.25;;;9.77;;
3101;SDS011;1561;42.666;23.392;2022-07-30T16:59:26;10.65;;;9.85;;
3101;SDS011;1561;42.666;23.392;2022-07-30T17:02:01;11.25;;;10.18;;
3101;SDS011;1561;42.666;23.392;2022-07-30T17:04:31;11.13;;;9.90;;
3101;SDS011;1561;42.666;23.392;2022-07-30T17:07:23;10.77;;;9.88;;
3101;SDS011;1561;42.666;23.392;2022-07-30T17:13:28;12.60;;;11.45;;
3101;SDS011;1561;42.666;23.392;2022-07-30T17:18:45;11.45;;;10.40;;